KMKE/MKE METAR and TAF weather

Enter ICAO airport designator
Station Type Date Time Source
KMKE METAR 2020/07/04 01:52 UTC NOAA

KMKE 040152Z 05006KT 10SM SCT250 24/19 A3003 RMK AO2 SLP162 T02440194


Station Type Date Time Source
KMKE Decoded METAR 2020/07/04 01:52 UTC NOAA

GEN MITCHELL INTERNATIONAL AIRPORT, WI, United States (KMKE) 42-57N 87-54W 206M
Jul 03, 2020 - 09:52 PM EDT / 2020.07.04 0152 UTC
Wind: from the NE (050 degrees) at 7 MPH (6 KT):0
Visibility: 10 mile(s):0
Sky conditions: partly cloudy
Temperature: 75.9 F (24.4 C)
Dew Point: 66.9 F (19.4 C)
Relative Humidity: 73%
Pressure (altimeter): 30.03 in. Hg (1016 hPa)
ob: KMKE 040152Z 05006KT 10SM SCT250 24/19 A3003 RMK AO2 SLP162 T02440194
cycle: 2

Station Type Date Time Source
KMKE TAF 2020/07/03 21:48 UTC NOAA

TAF
AMD KMKE 032045Z 0321/0424 05006KT P6SM FEW050
FM040100 01005KT P6SM FEW180
FM041500 04007KT P6SM FEW250

Example: see airport list